Date,TemperatureHighF,TemperatureAvgF,TemperatureLowF,DewpointHighF,DewpointAvgF,DewpointLowF,HumidityHigh,HumidityAvg,HumidityLow,PressureMaxIn,PressureMinIn,WindSpeedMaxMPH,WindSpeedAvgMPH,GustSpeedMaxMPH,PrecipitationSumIn
2013-8-1,77.1,74.1,70.1,74.4,71.7,67.9,97,92,82,30.00,29.78,20,6,22,0.37
2013-8-2,83.8,77.6,72.5,74.6,70.6,66.8,94,80,63,29.94,29.81,15,3,15,0.00
2013-8-3,79.7,75.8,71.1,71.3,69.2,65.6,94,80,66,29.94,29.88,13,4,13,0.01
2013-8-4,80.2,74.3,69.4,70.0,64.2,56.1,95,72,51,29.98,29.86,19,7,19,0.01
2013-8-5,77.0,73.3,68.8,64.4,60.9,56.0,76,65,52,30.08,29.98,17,4,17,0.00
2013-8-6,74.8,71.7,68.6,69.4,67.4,63.6,96,87,71,30.06,29.98,21,9,22,0.09
2013-8-7,81.3,74.9,69.4,75.7,71.9,67.6,97,91,79,30.06,29.98,23,11,23,0.05
2013-8-8,83.2,79.0,76.2,78.4,75.4,73.1,94,89,84,30.02,29.96,19,9,21,0.00
2013-8-9,89.5,81.3,76.6,81.1,77.2,74.5,95,88,72,29.96,29.81,18,6,18,0.33
2013-8-10,80.8,77.3,70.7,76.2,69.8,62.6,93,78,58,30.05,29.90,13,3,13,0.00
2013-8-11,81.1,76.8,71.5,74.1,71.6,64.1,92,84,72,30.08,29.99,13,1,13,0.00
2013-8-12,85.7,79.2,74.1,77.2,74.3,71.9,98,86,67,30.00,29.88,7,1,9,0.00
2013-8-13,82.8,79.0,71.5,77.5,73.8,69.7,96,84,70,29.89,29.71,20,6,20,0.17
2013-8-14,75.2,70.7,66.1,72.2,58.9,51.8,97,67,56,30.06,29.75,29,9,30,0.05
2013-8-15,74.9,69.2,64.4,61.8,56.9,51.8,81,66,47,30.16,30.05,20,4,20,0.00
2013-8-16,77.1,71.9,64.0,64.7,60.3,55.2,85,68,50,30.17,30.10,16,4,16,0.00
2013-8-17,77.3,72.5,68.6,68.5,64.2,60.6,84,75,58,30.24,30.15,18,7,18,0.00
2013-8-18,72.3,69.5,65.6,68.9,65.6,61.9,94,88,77,30.19,30.12,20,5,20,0.24
2013-8-19,73.5,70.0,66.0,69.1,66.6,63.6,95,89,85,30.15,30.05,12,2,12,0.00
2013-8-20,80.8,74.8,68.0,74.6,71.0,66.5,97,88,72,30.14,30.06,12,2,12,0.00
2013-8-21,83.4,78.1,73.1,76.9,74.6,71.6,97,89,78,30.17,30.06,17,5,17,0.01
2013-8-22,84.4,78.1,73.3,77.2,73.6,70.8,95,86,73,30.07,29.90,18,4,18,0.09
2013-8-23,78.1,75.8,71.1,72.6,68.7,60.1,86,79,60,30.07,29.89,21,7,21,0.00
2013-8-24,78.9,73.2,67.8,70.6,66.6,63.7,91,80,65,30.31,30.07,18,7,18,0.00
2013-8-25,78.5,72.5,67.2,67.0,61.4,57.0,90,69,52,30.39,30.25,13,3,14,0.00
2013-8-26,81.8,74.6,67.6,72.3,65.8,58.3,81,74,64,30.27,29.98,17,5,17,0.00
2013-8-27,76.8,74.2,73.1,69.6,68.1,67.4,86,81,76,29.98,29.91,16,5,16,0.00
2013-8-28,74.2,73.7,73.4,73.2,72.6,72.2,97,96,96,29.82,29.80,7,0,7,0.29
2013-8-29,81.2,75.9,72.4,75.5,72.7,67.2,97,90,81,30.00,29.80,21,7,21,0.22
2013-8-30,74.4,71.4,69.9,70.9,68.4,67.0,94,90,85,30.02,29.98,12,2,12,0.00